Time;durP1;ratioP1;P1;durP2;ratioP2;P2;SDS_P1;SDS_P2;PMS_P1;PMS_P2;Temp;Humidity;BMP_temperature;BMP_pressure;BME280_temperature;BME280_humidity;BME280_pressure;Samples;Min_cycle;Max_cycle;Signal;HPM_P1;HPM_P2
2022/10/16 00:02:00;;;;;;;;;;;18.80;79.30;;;;;;5037799;27;92541;-55
2022/10/16 00:04:26;;;;;;;;;;;18.80;79.30;;;;;;5049453;27;90116;-55
2022/10/16 00:06:51;;;;;;;;;;;18.80;79.40;;;;;;5044783;27;90742;-56
2022/10/16 00:09:17;;;;;;;;;;;18.80;79.30;;;;;;5009621;27;89854;-55
2022/10/16 00:11:42;;;;;;;;;;;18.80;79.30;;;;;;5036969;27;90033;-54
2022/10/16 00:14:10;;;;;;;;;;;18.80;79.30;;;;;;5052100;27;89593;-56
2022/10/16 00:16:36;;;;;;;;;;;18.80;79.40;;;;;;5053955;27;89986;-56
2022/10/16 00:19:01;;;;;;;;;;;18.80;79.40;;;;;;5038819;27;90374;-56
2022/10/16 00:21:28;;;;;;;;;;;18.80;79.40;;;;;;5044731;27;89948;-56
2022/10/16 00:23:55;;;;;;;;;;;18.80;79.30;;;;;;5048095;27;89563;-56
2022/10/16 00:26:21;;;;;;;;;;;18.80;79.50;;;;;;5049059;27;91600;-55
2022/10/16 00:28:48;;;;;;;;;;;18.80;79.50;;;;;;5028532;27;89652;-57
2022/10/16 00:31:14;;;;;;;;;;;18.80;79.30;;;;;;5043110;27;90185;-57
2022/10/16 00:33:40;;;;;;;;;;;18.80;79.30;;;;;;5047656;27;90961;-56
2022/10/16 00:36:06;;;;;;;;;;;18.80;79.30;;;;;;5040979;27;89980;-56
2022/10/16 00:38:32;;;;;;;;;;;18.80;79.30;;;;;;5047514;27;90422;-55
2022/10/16 00:40:58;;;;;;;;;;;18.80;79.30;;;;;;5052399;27;89946;-56
2022/10/16 00:43:33;;;;;;;;;;;18.80;79.20;;;;;;5032091;27;88810;-57
2022/10/16 00:45:59;;;;;;;;;;;18.80;79.20;;;;;;5039278;27;89995;-55
2022/10/16 00:48:24;;;;;;;;;;;18.80;79.20;;;;;;5028480;27;90983;-55
2022/10/16 00:50:50;;;;;;;;;;;18.80;79.20;;;;;;5046721;27;90931;-56
2022/10/16 00:53:16;;;;;;;;;;;18.80;79.30;;;;;;5033810;27;91295;-57
2022/10/16 00:55:42;;;;;;;;;;;18.80;79.40;;;;;;5047884;27;89630;-56
2022/10/16 00:58:07;;;;;;;;;;;18.80;79.30;;;;;;5051194;27;89888;-57
2022/10/16 01:00:33;;;;;;;;;;;18.80;79.20;;;;;;5053617;27;90240;-56
2022/10/16 01:03:00;;;;;;;;;;;18.80;79.20;;;;;;5045196;27;89706;-56
2022/10/16 01:05:30;;;;;;;;;;;18.80;79.20;;;;;;5051136;27;90210;-58
2022/10/16 01:08:04;;;;;;;;;;;18.80;79.20;;;;;;5053068;27;89995;-54
2022/10/16 01:10:42;;;;;;;;;;;18.80;79.00;;;;;;5054939;27;90752;-57
2022/10/16 01:13:10;;;;;;;;;;;18.80;79.10;;;;;;5056617;27;89505;-55
2022/10/16 01:15:55;;;;;;;;;;;18.80;79.00;;;;;;5041394;27;90785;-54
2022/10/16 01:18:42;;;;;;;;;;;18.80;79.00;;;;;;5032850;27;94660;-54
2022/10/16 01:21:23;;;;;;;;;;;18.80;79.00;;;;;;5043913;27;95459;-58
2022/10/16 01:23:48;;;;;;;;;;;18.80;79.10;;;;;;5051553;27;89963;-56
2022/10/16 01:26:14;;;;;;;;;;;18.80;79.00;;;;;;5027976;27;89934;-56
2022/10/16 01:28:42;;;;;;;;;;;18.80;79.10;;;;;;5033892;27;91143;-56
2022/10/16 01:31:09;;;;;;;;;;;18.80;79.00;;;;;;5051687;27;90808;-55
2022/10/16 01:33:39;;;;;;;;;;;18.80;79.10;;;;;;5048979;27;89480;-56
2022/10/16 01:36:13;;;;;;;;;;;18.80;79.00;;;;;;5048080;27;96196;-56
2022/10/16 01:38:39;;;;;;;;;;;18.80;79.10;;;;;;5056120;27;89812;-54
2022/10/16 01:41:09;;;;;;;;;;;18.80;79.10;;;;;;5043145;27;91551;-55
2022/10/16 01:43:43;;;;;;;;;;;18.80;79.10;;;;;;5052752;27;90915;-56
2022/10/16 01:46:10;;;;;;;;;;;18.80;79.10;;;;;;5047680;27;90158;-55
2022/10/16 01:48:36;;;;;;;;;;;18.80;79.00;;;;;;5047000;27;90008;-56
2022/10/16 01:51:09;;;;;;;;;;;18.80;79.10;;;;;;5040794;27;90653;-54
2022/10/16 01:53:36;;;;;;;;;;;18.80;79.10;;;;;;5044056;27;90085;-55
2022/10/16 01:56:03;;;;;;;;;;;18.80;79.20;;;;;;5049635;27;89936;-55
2022/10/16 01:58:34;;;;;;;;;;;18.80;79.10;;;;;;5047568;27;89211;-54
2022/10/16 02:01:01;;;;;;;;;;;18.80;79.10;;;;;;5046968;27;90652;-54
2022/10/16 02:03:27;;;;;;;;;;;18.80;79.10;;;;;;5048719;27;90398;-55
2022/10/16 02:05:56;;;;;;;;;;;18.80;79.00;;;;;;5044369;27;91421;-55
2022/10/16 02:08:22;;;;;;;;;;;18.80;79.00;;;;;;5043560;27;90061;-56
2022/10/16 02:10:48;;;;;;;;;;;18.80;78.90;;;;;;5042912;27;92260;-57
2022/10/16 02:13:19;;;;;;;;;;;18.80;79.00;;;;;;5048833;27;90668;-55
2022/10/16 02:15:45;;;;;;;;;;;18.80;79.10;;;;;;5045062;27;90331;-54
2022/10/16 02:18:11;;;;;;;;;;;18.80;79.00;;;;;;5052828;27;91403;-56
2022/10/16 02:20:44;;;;;;;;;;;18.70;79.00;;;;;;5031617;27;91379;-55
2022/10/16 02:23:11;;;;;;;;;;;18.80;79.00;;;;;;5048578;27;89734;-54
2022/10/16 02:25:40;;;;;;;;;;;18.80;79.10;;;;;;5038651;27;89627;-57
2022/10/16 02:28:08;;;;;;;;;;;18.70;79.10;;;;;;5050826;27;89764;-56
2022/10/16 02:30:39;;;;;;;;;;;18.70;79.10;;;;;;5041536;27;93954;-57
2022/10/16 02:33:07;;;;;;;;;;;18.80;79.10;;;;;;5050118;27;89825;-56
2022/10/16 02:35:33;;;;;;;;;;;18.80;79.10;;;;;;5041523;27;90456;-56
2022/10/16 02:37:59;;;;;;;;;;;18.70;79.10;;;;;;5041866;27;90514;-57
2022/10/16 02:40:25;;;;;;;;;;;18.70;79.00;;;;;;5053318;27;90503;-57
2022/10/16 02:42:51;;;;;;;;;;;18.70;79.00;;;;;;5042146;27;90299;-57
2022/10/16 02:45:17;;;;;;;;;;;18.70;79.00;;;;;;5047223;27;89453;-55
2022/10/16 02:47:42;;;;;;;;;;;18.80;79.10;;;;;;5047263;27;90270;-55
2022/10/16 02:50:08;;;;;;;;;;;18.70;79.00;;;;;;5036653;27;89654;-54
2022/10/16 02:52:33;;;;;;;;;;;18.70;79.00;;;;;;5040413;27;89480;-53
2022/10/16 02:54:59;;;;;;;;;;;18.70;79.00;;;;;;5041233;27;95814;-58
2022/10/16 02:57:24;;;;;;;;;;;18.70;79.10;;;;;;5039449;27;90067;-53
2022/10/16 02:59:50;;;;;;;;;;;18.70;79.00;;;;;;5036923;27;95281;-57
2022/10/16 03:02:15;;;;;;;;;;;18.70;79.00;;;;;;5044684;27;91876;-57
2022/10/16 03:04:41;;;;;;;;;;;18.70;79.00;;;;;;5052715;27;90080;-53
2022/10/16 03:07:07;;;;;;;;;;;18.70;78.90;;;;;;5018824;27;89653;-57
2022/10/16 03:09:33;;;;;;;;;;;18.80;78.90;;;;;;5035614;27;91057;-53
2022/10/16 03:11:58;;;;;;;;;;;18.70;79.00;;;;;;5042187;27;89257;-55
2022/10/16 03:14:24;;;;;;;;;;;18.70;79.00;;;;;;5028431;27;90084;-57
2022/10/16 03:16:49;;;;;;;;;;;18.70;79.00;;;;;;5046421;27;89971;-55
2022/10/16 03:19:16;;;;;;;;;;;18.70;79.00;;;;;;5038108;27;91202;-56
2022/10/16 03:21:42;;;;;;;;;;;18.70;79.00;;;;;;5044233;27;90930;-55
2022/10/16 03:24:07;;;;;;;;;;;18.70;78.90;;;;;;5040263;27;91403;-57
2022/10/16 03:26:33;;;;;;;;;;;18.70;79.00;;;;;;5036495;27;89946;-56
2022/10/16 03:28:58;;;;;;;;;;;18.70;79.00;;;;;;5043312;27;90126;-57
2022/10/16 03:31:24;;;;;;;;;;;18.70;78.80;;;;;;5040073;27;92109;-55
2022/10/16 03:33:49;;;;;;;;;;;18.70;78.80;;;;;;5040788;27;91504;-54
2022/10/16 03:36:15;;;;;;;;;;;18.70;79.00;;;;;;5035947;27;88599;-57
2022/10/16 03:38:41;;;;;;;;;;;18.70;79.00;;;;;;5040800;27;90418;-62
2022/10/16 03:41:07;;;;;;;;;;;18.70;78.80;;;;;;5031225;27;90779;-55
2022/10/16 03:43:33;;;;;;;;;;;18.70;78.90;;;;;;5039399;27;93035;-57
2022/10/16 03:45:58;;;;;;;;;;;18.70;78.80;;;;;;5032658;27;90177;-56
2022/10/16 03:48:24;;;;;;;;;;;18.70;78.90;;;;;;5023871;27;90609;-54
2022/10/16 03:50:51;;;;;;;;;;;18.70;78.90;;;;;;5037590;27;90165;-57
2022/10/16 03:53:17;;;;;;;;;;;18.70;79.00;;;;;;5042185;27;90137;-57
2022/10/16 03:55:43;;;;;;;;;;;18.70;79.00;;;;;;5045517;27;90710;-56
2022/10/16 03:58:08;;;;;;;;;;;18.70;78.90;;;;;;5042487;27;94721;-55
2022/10/16 04:00:34;;;;;;;;;;;18.70;78.90;;;;;;5046046;27;89628;-58
2022/10/16 04:03:00;;;;;;;;;;;18.70;78.90;;;;;;5032252;27;89876;-56
2022/10/16 04:05:25;;;;;;;;;;;18.70;78.80;;;;;;5042176;27;90171;-56
2022/10/16 04:07:51;;;;;;;;;;;18.70;78.80;;;;;;5037028;27;92137;-54
2022/10/16 04:10:17;;;;;;;;;;;18.70;78.90;;;;;;5020523;27;90086;-57
2022/10/16 04:12:42;;;;;;;;;;;18.70;79.00;;;;;;5019737;27;91175;-56
2022/10/16 04:15:08;;;;;;;;;;;18.70;79.00;;;;;;5039014;27;90695;-56
2022/10/16 04:17:33;;;;;;;;;;;18.70;78.90;;;;;;5031376;27;90018;-57
2022/10/16 04:19:59;;;;;;;;;;;18.70;78.80;;;;;;5040232;27;90167;-55
2022/10/16 04:22:24;;;;;;;;;;;18.70;78.80;;;;;;5044015;27;89544;-55
2022/10/16 04:24:50;;;;;;;;;;;18.70;78.80;;;;;;5040781;27;89278;-56
2022/10/16 04:27:16;;;;;;;;;;;18.70;78.80;;;;;;5037742;27;90313;-58
2022/10/16 04:29:41;;;;;;;;;;;18.70;78.80;;;;;;5040952;27;90924;-55
2022/10/16 04:32:08;;;;;;;;;;;18.70;79.60;;;;;;5039388;27;90810;-54
2022/10/16 04:34:34;;;;;;;;;;;18.70;78.80;;;;;;5041909;27;89816;-56
2022/10/16 04:37:00;;;;;;;;;;;18.70;78.70;;;;;;5051153;27;89427;-57
2022/10/16 04:39:25;;;;;;;;;;;18.70;78.70;;;;;;5047701;27;90565;-55
2022/10/16 04:41:51;;;;;;;;;;;18.70;78.70;;;;;;5031646;27;89528;-57
2022/10/16 04:44:16;;;;;;;;;;;18.70;78.80;;;;;;5051273;27;94040;-57
2022/10/16 04:46:42;;;;;;;;;;;18.70;78.80;;;;;;5047486;27;91261;-56
2022/10/16 04:49:07;;;;;;;;;;;18.60;78.70;;;;;;5048237;27;91658;-56
2022/10/16 04:51:33;;;;;;;;;;;18.60;78.70;;;;;;5045778;27;90419;-56
2022/10/16 04:53:59;;;;;;;;;;;18.60;78.80;;;;;;5042314;27;89957;-56
2022/10/16 04:56:24;;;;;;;;;;;18.60;78.70;;;;;;5052342;27;91171;-55
2022/10/16 04:58:50;;;;;;;;;;;18.60;78.70;;;;;;5036977;27;90355;-55
2022/10/16 05:01:15;;;;;;;;;;;18.60;78.70;;;;;;5032880;27;89827;-55
2022/10/16 05:03:41;;;;;;;;;;;18.60;78.70;;;;;;5041262;27;89559;-54
2022/10/16 05:06:07;;;;;;;;;;;18.60;78.60;;;;;;5037204;27;90339;-54
2022/10/16 05:08:32;;;;;;;;;;;18.60;78.60;;;;;;5034703;27;89729;-54
2022/10/16 05:10:58;;;;;;;;;;;18.60;78.70;;;;;;5037600;27;92423;-54
2022/10/16 05:13:23;;;;;;;;;;;18.60;78.60;;;;;;5039969;27;89019;-55
2022/10/16 05:15:49;;;;;;;;;;;18.60;78.70;;;;;;5044668;27;89935;-55
2022/10/16 05:18:15;;;;;;;;;;;18.60;78.70;;;;;;5030701;27;92381;-55
2022/10/16 05:20:41;;;;;;;;;;;18.60;78.70;;;;;;5035614;27;90744;-55
2022/10/16 05:23:07;;;;;;;;;;;18.60;78.80;;;;;;5041200;27;89914;-58
2022/10/16 05:25:32;;;;;;;;;;;18.60;78.70;;;;;;5048673;27;94226;-55
2022/10/16 05:27:58;;;;;;;;;;;18.60;78.80;;;;;;5037836;27;93036;-55
2022/10/16 05:30:24;;;;;;;;;;;18.60;78.80;;;;;;5029848;27;91638;-56
2022/10/16 05:32:49;;;;;;;;;;;18.60;78.70;;;;;;5043335;27;89582;-55
2022/10/16 05:35:15;;;;;;;;;;;18.60;78.60;;;;;;5046696;27;89516;-56
2022/10/16 05:37:41;;;;;;;;;;;18.60;78.70;;;;;;5038095;27;90251;-55
2022/10/16 05:40:07;;;;;;;;;;;18.60;78.70;;;;;;5030639;27;93169;-55
2022/10/16 05:42:32;;;;;;;;;;;18.60;78.70;;;;;;5031454;27;94467;-56
2022/10/16 05:44:58;;;;;;;;;;;18.60;78.70;;;;;;5034613;27;92749;-56
2022/10/16 05:47:23;;;;;;;;;;;18.60;78.90;;;;;;5045529;27;90000;-56
2022/10/16 05:49:49;;;;;;;;;;;18.60;78.90;;;;;;5041100;27;90197;-54
2022/10/16 05:52:14;;;;;;;;;;;18.60;78.70;;;;;;5047341;27;90849;-56
2022/10/16 05:54:40;;;;;;;;;;;18.60;79.50;;;;;;5039635;27;91461;-56
2022/10/16 05:57:05;;;;;;;;;;;18.60;78.80;;;;;;5033875;27;90334;-56
2022/10/16 05:59:31;;;;;;;;;;;18.60;78.70;;;;;;5042681;27;89512;-57
2022/10/16 06:01:57;;;;;;;;;;;18.60;78.70;;;;;;5042189;27;89866;-55
2022/10/16 06:04:22;;;;;;;;;;;18.60;78.50;;;;;;5037881;27;91039;-58
2022/10/16 06:06:48;;;;;;;;;;;18.60;78.60;;;;;;5046155;27;90234;-55
2022/10/16 06:09:14;;;;;;;;;;;18.60;78.70;;;;;;5040400;27;93937;-55
2022/10/16 06:11:39;;;;;;;;;;;18.60;78.60;;;;;;5050233;27;90619;-57
2022/10/16 06:14:06;;;;;;;;;;;18.60;78.60;;;;;;5047660;27;91282;-55
2022/10/16 06:16:33;;;;;;;;;;;18.60;78.60;;;;;;5055714;27;89834;-54
2022/10/16 06:19:01;;;;;;;;;;;18.60;78.60;;;;;;5035815;27;92431;-55
2022/10/16 06:21:28;;;;;;;;;;;18.60;78.50;;;;;;5044332;27;90019;-57
2022/10/16 06:23:54;;;;;;;;;;;18.60;78.50;;;;;;5041897;27;91635;-56
2022/10/16 06:26:21;;;;;;;;;;;18.60;78.60;;;;;;5044580;27;90856;-56
2022/10/16 06:28:47;;;;;;;;;;;18.60;78.60;;;;;;5035630;27;90057;-55
2022/10/16 06:31:13;;;;;;;;;;;18.50;78.70;;;;;;5005954;27;97391;-56
2022/10/16 06:33:40;;;;;;;;;;;18.60;78.70;;;;;;5039852;27;90886;-57
2022/10/16 06:36:07;;;;;;;;;;;18.50;78.70;;;;;;5048055;27;91403;-55
2022/10/16 06:38:32;;;;;;;;;;;18.50;78.70;;;;;;5040434;27;90208;-56
2022/10/16 06:40:58;;;;;;;;;;;18.50;78.60;;;;;;5038463;27;89905;-56
2022/10/16 06:43:24;;;;;;;;;;;18.50;78.70;;;;;;5056162;27;90536;-55
2022/10/16 06:45:56;;;;;;;;;;;18.50;78.60;;;;;;5054265;27;89566;-56
2022/10/16 06:48:22;;;;;;;;;;;18.50;78.70;;;;;;5035115;27;89599;-56
2022/10/16 06:50:57;;;;;;;;;;;18.60;78.70;;;;;;5045483;27;89224;-56
2022/10/16 06:53:23;;;;;;;;;;;18.60;78.60;;;;;;5045767;27;90219;-57
2022/10/16 06:55:48;;;;;;;;;;;18.50;78.50;;;;;;5046950;27;90343;-56
2022/10/16 06:58:14;;;;;;;;;;;18.50;78.60;;;;;;5047152;27;92763;-56
2022/10/16 07:00:39;;;;;;;;;;;18.50;78.60;;;;;;5048035;27;91164;-56
2022/10/16 07:03:05;;;;;;;;;;;18.60;78.60;;;;;;5040710;27;90788;-56
2022/10/16 07:05:30;;;;;;;;;;;18.60;78.70;;;;;;5035859;27;90230;-57
2022/10/16 07:07:56;;;;;;;;;;;18.60;78.70;;;;;;5047143;27;89899;-55
2022/10/16 07:10:23;;;;;;;;;;;18.60;78.80;;;;;;5048761;27;89970;-57
2022/10/16 07:12:49;;;;;;;;;;;18.60;78.80;;;;;;5046643;27;94466;-57
2022/10/16 07:15:15;;;;;;;;;;;18.60;78.80;;;;;;5039323;27;89217;-54
2022/10/16 07:17:40;;;;;;;;;;;18.60;78.80;;;;;;5044645;27;90899;-57
2022/10/16 07:20:06;;;;;;;;;;;18.50;78.80;;;;;;5040587;27;89834;-55
2022/10/16 07:22:32;;;;;;;;;;;18.60;78.80;;;;;;5040489;27;91136;-59
2022/10/16 07:24:58;;;;;;;;;;;18.60;78.80;;;;;;5043846;27;92359;-55
2022/10/16 07:27:24;;;;;;;;;;;18.50;78.80;;;;;;5045276;27;89687;-56
2022/10/16 07:29:49;;;;;;;;;;;18.50;78.80;;;;;;5051255;27;92478;-57
2022/10/16 07:32:15;;;;;;;;;;;18.60;78.80;;;;;;5025260;27;90640;-56
2022/10/16 07:34:41;;;;;;;;;;;18.50;78.80;;;;;;5042930;27;92511;-56
2022/10/16 07:37:07;;;;;;;;;;;18.60;78.90;;;;;;5045735;27;95188;-56
2022/10/16 07:39:33;;;;;;;;;;;18.50;78.70;;;;;;5032666;27;89125;-56
2022/10/16 07:41:58;;;;;;;;;;;18.60;78.70;;;;;;5060339;27;89949;-56
2022/10/16 07:44:24;;;;;;;;;;;18.60;78.70;;;;;;5055204;27;90636;-57
2022/10/16 07:46:49;;;;;;;;;;;18.50;78.60;;;;;;5047018;27;94634;-57
2022/10/16 07:49:15;;;;;;;;;;;18.50;78.60;;;;;;5043670;27;91124;-55
2022/10/16 07:51:41;;;;;;;;;;;18.60;78.70;;;;;;5042123;27;90433;-55
2022/10/16 07:54:08;;;;;;;;;;;18.60;78.70;;;;;;5041281;27;89616;-53
2022/10/16 07:56:33;;;;;;;;;;;18.60;78.80;;;;;;5045703;27;89871;-58
2022/10/16 07:58:59;;;;;;;;;;;18.60;78.70;;;;;;5046253;27;91124;-58
2022/10/16 08:01:24;;;;;;;;;;;18.60;78.70;;;;;;5041798;27;92939;-55
2022/10/16 08:03:51;;;;;;;;;;;18.60;78.80;;;;;;5024218;27;91777;-57
2022/10/16 08:06:17;;;;;;;;;;;18.60;78.80;;;;;;5044879;27;91274;-56
2022/10/16 08:08:42;;;;;;;;;;;18.60;78.90;;;;;;5024423;27;90682;-58
2022/10/16 08:11:08;;;;;;;;;;;18.60;78.90;;;;;;5030181;27;91267;-56
2022/10/16 08:13:34;;;;;;;;;;;18.60;78.90;;;;;;5039438;27;93009;-55
2022/10/16 08:16:00;;;;;;;;;;;18.60;79.00;;;;;;5042828;27;90253;-56
2022/10/16 08:18:25;;;;;;;;;;;18.60;78.90;;;;;;5036304;27;94865;-57
2022/10/16 08:20:58;;;;;;;;;;;18.60;79.00;;;;;;5040876;27;92113;-58
2022/10/16 08:23:25;;;;;;;;;;;18.60;79.10;;;;;;5042035;27;93289;-58
2022/10/16 08:25:52;;;;;;;;;;;18.60;79.10;;;;;;5040273;27;89659;-56
2022/10/16 08:28:18;;;;;;;;;;;18.70;79.10;;;;;;5037287;27;92076;-57
2022/10/16 08:30:44;;;;;;;;;;;18.70;79.10;;;;;;5035193;27;95302;-55
2022/10/16 08:33:09;;;;;;;;;;;18.70;79.20;;;;;;5041794;27;90675;-58
2022/10/16 08:35:35;;;;;;;;;;;18.70;79.10;;;;;;5009195;27;91188;-57
2022/10/16 08:38:02;;;;;;;;;;;18.70;79.30;;;;;;5021886;27;91995;-55
2022/10/16 08:40:31;;;;;;;;;;;18.70;79.20;;;;;;5022667;27;89881;-57
2022/10/16 08:42:57;;;;;;;;;;;18.70;79.20;;;;;;5027851;27;90551;-58
2022/10/16 08:45:28;;;;;;;;;;;18.60;79.20;;;;;;5036116;27;91182;-57
2022/10/16 08:48:06;;;;;;;;;;;18.70;79.30;;;;;;5037210;27;89671;-57
2022/10/16 08:50:32;;;;;;;;;;;18.70;79.30;;;;;;5044105;27;89979;-57
2022/10/16 08:52:58;;;;;;;;;;;18.70;79.30;;;;;;5040893;27;89484;-57
2022/10/16 08:55:42;;;;;;;;;;;18.70;79.30;;;;;;5045052;27;90505;-56
2022/10/16 08:58:15;;;;;;;;;;;18.70;79.30;;;;;;5050357;27;89547;-57
2022/10/16 09:00:42;;;;;;;;;;;18.70;79.40;;;;;;5037039;27;93161;-55
2022/10/16 09:03:17;;;;;;;;;;;18.70;79.40;;;;;;5038217;27;90883;-57
2022/10/16 09:05:52;;;;;;;;;;;18.70;79.50;;;;;;5051010;27;89892;-57
2022/10/16 09:08:18;;;;;;;;;;;18.70;79.40;;;;;;5046083;27;89613;-58
2022/10/16 09:11:03;;;;;;;;;;;18.70;79.60;;;;;;5040263;27;91276;-57
2022/10/16 09:13:43;;;;;;;;;;;18.70;79.60;;;;;;5031799;27;91152;-54
2022/10/16 09:16:15;;;;;;;;;;;18.70;79.60;;;;;;5046885;27;92562;-56
2022/10/16 09:18:43;;;;;;;;;;;18.70;79.70;;;;;;5040796;27;91308;-56
2022/10/16 09:21:26;;;;;;;;;;;18.70;79.70;;;;;;5049769;27;90032;-57
2022/10/16 09:23:53;;;;;;;;;;;18.70;79.70;;;;;;5039187;27;89832;-55
2022/10/16 09:26:21;;;;;;;;;;;18.70;79.70;;;;;;5043924;27;91010;-56
2022/10/16 09:28:47;;;;;;;;;;;18.70;79.70;;;;;;5042295;27;90891;-56
2022/10/16 09:31:17;;;;;;;;;;;18.70;79.70;;;;;;5047283;27;90679;-58
2022/10/16 09:33:44;;;;;;;;;;;18.70;79.60;;;;;;5057864;27;89910;-57
2022/10/16 09:36:10;;;;;;;;;;;18.80;79.60;;;;;;5052289;27;94864;-58
2022/10/16 09:38:36;;;;;;;;;;;18.80;79.70;;;;;;5051518;27;90306;-55
2022/10/16 09:41:19;;;;;;;;;;;18.70;79.70;;;;;;5036256;27;90565;-58
2022/10/16 09:43:56;;;;;;;;;;;18.70;79.70;;;;;;5033142;27;91440;-55
2022/10/16 09:46:24;;;;;;;;;;;18.80;79.90;;;;;;5037569;27;90215;-57
2022/10/16 09:48:50;;;;;;;;;;;18.80;79.90;;;;;;5051681;27;89792;-57
2022/10/16 09:51:23;;;;;;;;;;;18.80;80.00;;;;;;5041180;27;91385;-57
2022/10/16 09:53:54;;;;;;;;;;;18.80;80.00;;;;;;5055086;27;90483;-57
2022/10/16 09:56:24;;;;;;;;;;;18.80;79.90;;;;;;5047440;27;90916;-58
2022/10/16 09:58:51;;;;;;;;;;;18.80;79.80;;;;;;5034470;27;89547;-56
2022/10/16 10:01:17;;;;;;;;;;;18.80;79.90;;;;;;5040545;27;89466;-56
2022/10/16 10:03:43;;;;;;;;;;;18.80;80.00;;;;;;5045605;27;90596;-57
2022/10/16 10:06:21;;;;;;;;;;;18.80;80.10;;;;;;5051503;27;90532;-56
2022/10/16 10:09:13;;;;;;;;;;;18.80;80.10;;;;;;5020872;27;90990;-57
2022/10/16 10:12:08;;;;;;;;;;;18.80;80.10;;;;;;5012799;27;89973;-56
2022/10/16 10:14:38;;;;;;;;;;;18.80;80.10;;;;;;5028992;27;90095;-58
2022/10/16 10:17:06;;;;;;;;;;;18.80;80.30;;;;;;5044195;27;90839;-55
2022/10/16 10:19:40;;;;;;;;;;;18.80;80.40;;;;;;5044778;27;92604;-55
2022/10/16 10:22:21;;;;;;;;;;;18.80;80.60;;;;;;5036357;27;94464;-56
2022/10/16 10:25:05;;;;;;;;;;;18.80;80.60;;;;;;5042830;27;90354;-58
2022/10/16 10:27:35;;;;;;;;;;;18.70;80.80;;;;;;5048349;27;89808;-57
2022/10/16 10:30:05;;;;;;;;;;;18.80;80.90;;;;;;5058951;27;90072;-55
2022/10/16 10:32:37;;;;;;;;;;;18.80;80.90;;;;;;5049137;27;90564;-58
2022/10/16 10:35:05;;;;;;;;;;;18.70;80.90;;;;;;5047075;27;89318;-57
2022/10/16 10:37:43;;;;;;;;;;;18.80;81.00;;;;;;5040790;27;90068;-56
2022/10/16 10:40:14;;;;;;;;;;;18.80;81.00;;;;;;5053186;27;96002;-57
2022/10/16 10:42:53;;;;;;;;;;;18.80;81.00;;;;;;5027007;27;91169;-58
2022/10/16 10:45:42;;;;;;;;;;;18.80;81.20;;;;;;5047255;27;91052;-58
2022/10/16 10:48:24;;;;;;;;;;;18.80;81.20;;;;;;5049739;27;89963;-58
2022/10/16 10:50:56;;;;;;;;;;;18.80;81.30;;;;;;5056425;27;90358;-59
2022/10/16 10:53:35;;;;;;;;;;;18.80;81.30;;;;;;5032664;27;90893;-57
2022/10/16 10:56:04;;;;;;;;;;;18.80;81.30;;;;;;5028889;27;95776;-58
2022/10/16 10:58:44;;;;;;;;;;;18.80;81.40;;;;;;5026509;27;89569;-57
2022/10/16 11:01:12;;;;;;;;;;;18.80;81.40;;;;;;5033435;27;90511;-58
2022/10/16 11:03:56;;;;;;;;;;;18.80;81.50;;;;;;5031755;27;89712;-55
2022/10/16 11:06:26;;;;;;;;;;;18.80;81.30;;;;;;5043149;27;91134;-59
2022/10/16 11:08:54;;;;;;;;;;;18.90;81.50;;;;;;5048333;27;91334;-58
2022/10/16 11:11:25;;;;;;;;;;;18.80;81.50;;;;;;5038367;27;90506;-57
2022/10/16 11:14:03;;;;;;;;;;;18.80;81.50;;;;;;5038407;27;89696;-56
2022/10/16 11:16:38;;;;;;;;;;;18.90;81.60;;;;;;5023453;27;93671;-59
2022/10/16 11:19:23;;;;;;;;;;;18.90;81.60;;;;;;5028819;27;89962;-59
2022/10/16 11:21:55;;;;;;;;;;;18.90;81.60;;;;;;5051744;27;91489;-57
2022/10/16 11:24:34;;;;;;;;;;;18.90;81.50;;;;;;5032217;27;89856;-56
2022/10/16 11:27:03;;;;;;;;;;;18.90;81.50;;;;;;5033163;27;93940;-59
2022/10/16 11:29:30;;;;;;;;;;;18.90;81.40;;;;;;5042347;27;90415;-59
2022/10/16 11:32:06;;;;;;;;;;;18.90;81.40;;;;;;5041483;27;91285;-57
2022/10/16 11:34:35;;;;;;;;;;;18.90;81.30;;;;;;5038461;27;91309;-59
2022/10/16 11:37:05;;;;;;;;;;;18.90;81.20;;;;;;5033052;27;90227;-56
2022/10/16 11:39:31;;;;;;;;;;;18.90;81.30;;;;;;5040272;27;90305;-57
2022/10/16 11:42:04;;;;;;;;;;;18.90;81.30;;;;;;5044622;27;92195;-56
2022/10/16 11:44:38;;;;;;;;;;;18.90;81.30;;;;;;5037776;27;89766;-56
2022/10/16 11:47:04;;;;;;;;;;;18.90;81.20;;;;;;5046369;27;90901;-55
2022/10/16 11:49:31;;;;;;;;;;;19.00;81.10;;;;;;5038128;27;91235;-57
2022/10/16 11:52:06;;;;;;;;;;;18.90;81.00;;;;;;5038665;27;89159;-57
2022/10/16 11:54:50;;;;;;;;;;;19.00;81.10;;;;;;5041031;27;90658;-58
2022/10/16 11:57:19;;;;;;;;;;;19.00;81.10;;;;;;5041141;27;90720;-56
2022/10/16 11:59:51;;;;;;;;;;;19.00;81.00;;;;;;5043549;27;90905;-56
2022/10/16 12:02:35;;;;;;;;;;;19.00;81.00;;;;;;5039948;27;94473;-55
2022/10/16 12:05:18;;;;;;;;;;;19.00;81.00;;;;;;5046020;27;90710;-55
2022/10/16 12:07:48;;;;;;;;;;;19.00;81.00;;;;;;5040067;27;91598;-58
2022/10/16 12:10:21;;;;;;;;;;;19.00;81.00;;;;;;5024377;27;90331;-55
2022/10/16 12:12:46;;;;;;;;;;;19.00;80.90;;;;;;5026939;27;90369;-58
2022/10/16 12:15:18;;;;;;;;;;;19.00;81.00;;;;;;5041087;27;91036;-57
2022/10/16 12:17:43;;;;;;;;;;;19.00;80.90;;;;;;5033207;27;94163;-55
2022/10/16 12:20:12;;;;;;;;;;;19.00;80.90;;;;;;5037836;27;89827;-56
2022/10/16 12:22:40;;;;;;;;;;;19.00;80.90;;;;;;5039022;27;95554;-57
2022/10/16 12:25:19;;;;;;;;;;;19.00;80.80;;;;;;5040685;27;92886;-55
2022/10/16 12:27:45;;;;;;;;;;;19.00;80.80;;;;;;5031278;27;90554;-55
2022/10/16 12:30:20;;;;;;;;;;;19.00;80.80;;;;;;5026782;27;90918;-56
2022/10/16 12:32:52;;;;;;;;;;;19.10;81.00;;;;;;5030167;27;90862;-56
2022/10/16 12:35:29;;;;;;;;;;;19.10;81.00;;;;;;5038119;27;89883;-55
2022/10/16 12:38:04;;;;;;;;;;;19.10;81.00;;;;;;5033877;27;90210;-55
2022/10/16 12:40:31;;;;;;;;;;;19.10;81.00;;;;;;5036984;27;89935;-56
2022/10/16 12:42:57;;;;;;;;;;;19.10;80.70;;;;;;5039990;27;90737;-59
2022/10/16 12:45:22;;;;;;;;;;;19.10;80.80;;;;;;5045609;27;92751;-54
2022/10/16 12:47:49;;;;;;;;;;;19.10;80.70;;;;;;5041963;27;89619;-59
2022/10/16 12:50:50;;;;;;;;;;;19.20;76.60;;;;;;5040670;27;90581;-58
2022/10/16 12:53:20;;;;;;;;;;;19.40;77.30;;;;;;4929345;28;93633;-55
2022/10/16 12:55:54;;;;;;;;;;;19.40;76.50;;;;;;5025845;27;90583;-57
2022/10/16 12:58:20;;;;;;;;;;;19.40;75.90;;;;;;5033892;27;90391;-54
2022/10/16 13:00:50;;;;;;;;;;;19.40;76.70;;;;;;5046719;27;91340;-54
2022/10/16 13:03:22;;;;;;;;;;;19.50;74.30;;;;;;5045836;27;89673;-59
2022/10/16 13:05:47;;;;;;;;;;;19.50;73.10;;;;;;5043503;27;90777;-58
2022/10/16 13:08:19;;;;;;;;;;;19.50;74.30;;;;;;5036093;27;89823;-54
2022/10/16 13:10:47;;;;;;;;;;;19.40;73.40;;;;;;5037509;27;91540;-55
2022/10/16 13:13:20;;;;;;;;;;;19.40;74.80;;;;;;5040161;27;94422;-55
2022/10/16 13:15:54;;;;;;;;;;;19.50;76.60;;;;;;5045277;27;91877;-58
2022/10/16 13:18:38;;;;;;;;;;;19.40;75.00;;;;;;5034885;27;89990;-57
2022/10/16 13:21:04;;;;;;;;;;;19.50;76.20;;;;;;5036642;27;91324;-56
2022/10/16 13:23:50;;;;;;;;;;;19.50;76.40;;;;;;5032818;27;90149;-55
2022/10/16 13:26:29;;;;;;;;;;;19.60;76.10;;;;;;4992710;27;92761;-58
2022/10/16 13:28:58;;;;;;;;;;;19.60;75.00;;;;;;5034680;27;90085;-58
2022/10/16 13:31:24;;;;;;;;;;;19.50;75.10;;;;;;5032326;27;89951;-58
2022/10/16 13:33:54;;;;;;;;;;;19.50;75.40;;;;;;5046505;27;89317;-58
2022/10/16 13:36:24;;;;;;;;;;;19.50;75.60;;;;;;5040724;27;92581;-58
2022/10/16 13:39:00;;;;;;;;;;;19.50;76.10;;;;;;5037708;27;91224;-57
2022/10/16 13:41:25;;;;;;;;;;;19.60;75.10;;;;;;5026942;27;92233;-56
2022/10/16 13:43:52;;;;;;;;;;;19.60;76.10;;;;;;5026236;27;90098;-59
2022/10/16 13:46:22;;;;;;;;;;;19.60;75.60;;;;;;5024668;27;92360;-59
2022/10/16 13:49:08;;;;;;;;;;;19.70;75.30;;;;;;5040098;27;91975;-58
2022/10/16 13:51:33;;;;;;;;;;;19.80;74.70;;;;;;5018264;27;90448;-59
2022/10/16 13:53:59;;;;;;;;;;;19.80;74.20;;;;;;5035936;27;93355;-55
2022/10/16 13:56:27;;;;;;;;;;;19.70;74.30;;;;;;5037244;27;92136;-59
2022/10/16 13:58:59;;;;;;;;;;;19.80;73.70;;;;;;5016777;27;89414;-59
2022/10/16 14:01:28;;;;;;;;;;;19.70;74.70;;;;;;5015341;27;90393;-59
2022/10/16 14:04:00;;;;;;;;;;;19.80;73.70;;;;;;5044397;27;92121;-61
2022/10/16 14:06:25;;;;;;;;;;;19.80;73.70;;;;;;5041677;27;90520;-57
2022/10/16 14:08:58;;;;;;;;;;;19.80;73.80;;;;;;5027246;27;95239;-59
2022/10/16 14:11:24;;;;;;;;;;;19.80;73.40;;;;;;5041265;27;90277;-59
2022/10/16 14:13:50;;;;;;;;;;;19.90;72.30;;;;;;5037947;27;90106;-58
2022/10/16 14:16:20;;;;;;;;;;;19.80;73.50;;;;;;5058211;27;90140;-59
2022/10/16 14:18:51;;;;;;;;;;;19.90;72.70;;;;;;5048966;27;89913;-58
2022/10/16 14:21:18;;;;;;;;;;;19.90;72.30;;;;;;5046330;27;89795;-59
2022/10/16 14:23:43;;;;;;;;;;;19.90;73.50;;;;;;5043880;27;90655;-59
2022/10/16 14:26:09;;;;;;;;;;;19.90;73.20;;;;;;5045973;27;90576;-60